createdAt,value
2022-11-06T00:00:14.290Z,3.00
2022-11-06T00:01:14.289Z,3.80
2022-11-06T00:02:20.264Z,4.20
2022-11-06T00:03:16.317Z,6.90
2022-11-06T00:04:14.269Z,4.80
2022-11-06T00:05:14.263Z,2.50
2022-11-06T00:06:14.285Z,4.90
2022-11-06T00:07:14.279Z,5.00
2022-11-06T00:08:14.671Z,4.90
2022-11-06T00:09:14.249Z,4.50
2022-11-06T00:10:14.198Z,1.50
2022-11-06T00:11:14.198Z,2.50
2022-11-06T00:12:14.219Z,5.80
2022-11-06T00:13:14.180Z,1.90
2022-11-06T00:14:14.166Z,2.60
2022-11-06T00:15:14.198Z,7.10
2022-11-06T00:16:14.197Z,3.20
2022-11-06T00:17:14.173Z,2.80
2022-11-06T00:18:14.477Z,1.70
2022-11-06T00:19:14.135Z,4.70
2022-11-06T00:20:14.116Z,3.40
2022-11-06T00:21:14.116Z,1.70
2022-11-06T00:22:14.138Z,6.30
2022-11-06T00:23:14.107Z,2.10
2022-11-06T00:24:14.087Z,3.90
2022-11-06T00:25:14.083Z,4.80
2022-11-06T00:26:14.106Z,3.40
2022-11-06T00:27:14.102Z,1.50
2022-11-06T00:28:14.404Z,4.00
2022-11-06T00:29:14.076Z,1.70
2022-11-06T00:30:14.046Z,2.80
2022-11-06T00:31:14.041Z,3.70
2022-11-06T00:32:14.056Z,3.30
2022-11-06T00:33:14.015Z,3.00
2022-11-06T00:34:14.064Z,4.10
2022-11-06T00:35:14.022Z,1.70
2022-11-06T00:36:13.988Z,3.90
2022-11-06T00:37:14.039Z,4.70
2022-11-06T00:38:14.255Z,4.10
2022-11-06T00:39:14.966Z,6.50
2022-11-06T00:40:13.967Z,6.50
2022-11-06T00:41:13.957Z,6.20
2022-11-06T00:42:13.974Z,6.00
2022-11-06T00:43:13.928Z,5.50
2022-11-06T00:44:13.924Z,6.70
2022-11-06T00:45:13.937Z,6.50
2022-11-06T00:46:13.935Z,6.60
2022-11-06T00:47:13.934Z,3.40
2022-11-06T00:48:14.304Z,3.50
2022-11-06T00:49:13.885Z,3.00
2022-11-06T00:50:13.888Z,3.20
2022-11-06T00:51:13.870Z,3.50
2022-11-06T00:52:13.862Z,3.30
2022-11-06T00:53:13.883Z,1.10
2022-11-06T00:54:13.877Z,2.80
2022-11-06T00:55:13.833Z,1.90
2022-11-06T00:56:13.858Z,1.40
2022-11-06T00:57:13.819Z,2.10
2022-11-06T00:58:14.299Z,1.30
2022-11-06T00:59:13.800Z,1.70
2022-11-06T01:00:13.796Z,2.70
2022-11-06T01:01:13.797Z,2.00
2022-11-06T01:02:13.859Z,2.20
2022-11-06T01:03:13.812Z,2.00
2022-11-06T01:04:13.763Z,2.30
2022-11-06T01:05:13.748Z,1.20
2022-11-06T01:06:13.731Z,1.40
2022-11-06T01:07:13.731Z,1.40
2022-11-06T01:08:14.116Z,1.10
2022-11-06T01:09:13.781Z,1.90
2022-11-06T01:10:13.728Z,1.10
2022-11-06T01:11:13.700Z,2.60
2022-11-06T01:12:14.627Z,3.80
2022-11-06T01:13:14.720Z,6.50
2022-11-06T01:14:13.669Z,5.30
2022-11-06T01:15:13.659Z,2.00
2022-11-06T01:16:13.657Z,1.90
2022-11-06T01:17:13.655Z,1.50
2022-11-06T01:18:13.929Z,3.00
2022-11-06T01:19:13.626Z,5.50
2022-11-06T01:20:13.616Z,2.00
2022-11-06T01:21:13.626Z,3.70
2022-11-06T01:22:13.603Z,6.50
2022-11-06T01:23:13.616Z,5.60
2022-11-06T01:24:13.650Z,4.20
2022-11-06T01:25:13.611Z,3.70
2022-11-06T01:26:13.569Z,6.30
2022-11-06T01:27:26.483Z,3.10
2022-11-06T01:28:15.744Z,4.20
2022-11-06T01:29:13.545Z,5.70
2022-11-06T01:30:13.539Z,4.90
2022-11-06T01:31:13.545Z,5.80
2022-11-06T01:32:13.523Z,4.70
2022-11-06T01:33:13.527Z,6.60
2022-11-06T01:34:14.499Z,8.00
2022-11-06T01:35:13.519Z,7.20
2022-11-06T01:36:13.479Z,3.10
2022-11-06T01:37:14.977Z,5.10
2022-11-06T01:38:14.691Z,4.10
2022-11-06T01:39:13.456Z,7.30
2022-11-06T01:40:13.482Z,5.90
2022-11-06T01:41:13.445Z,4.50
2022-11-06T01:42:13.479Z,3.10
2022-11-06T01:43:13.455Z,5.80
2022-11-06T01:44:13.416Z,2.70
2022-11-06T01:45:13.412Z,6.90
2022-11-06T01:46:13.400Z,6.20
2022-11-06T01:47:13.395Z,5.50
2022-11-06T01:48:13.639Z,5.70
2022-11-06T01:49:13.398Z,1.10
2022-11-06T01:50:13.413Z,3.00
2022-11-06T01:51:13.364Z,7.30
2022-11-06T01:52:13.348Z,3.80
2022-11-06T01:53:13.378Z,6.30
2022-11-06T01:54:13.344Z,2.90
2022-11-06T01:55:13.321Z,4.20
2022-11-06T01:56:13.315Z,3.20
2022-11-06T01:57:13.307Z,6.00
2022-11-06T01:58:13.553Z,5.60
2022-11-06T01:59:13.361Z,3.80
2022-11-06T02:00:13.297Z,3.00
2022-11-06T02:01:13.288Z,2.80
2022-11-06T02:02:13.314Z,8.00
2022-11-06T02:03:13.332Z,5.70
2022-11-06T02:04:13.260Z,3.50
2022-11-06T02:05:13.239Z,5.90
2022-11-06T02:06:13.242Z,2.90
2022-11-06T02:07:13.216Z,3.30
2022-11-06T02:08:13.486Z,2.30
2022-11-06T02:09:13.211Z,4.30
2022-11-06T02:10:13.201Z,3.60
2022-11-06T02:11:13.218Z,3.00
2022-11-06T02:12:13.196Z,2.90
2022-11-06T02:13:13.201Z,2.80
2022-11-06T02:14:13.188Z,2.50
2022-11-06T02:15:13.154Z,2.60
2022-11-06T02:16:13.161Z,3.90
2022-11-06T02:17:13.140Z,1.60
2022-11-06T02:18:13.393Z,2.40
2022-11-06T02:19:13.190Z,3.00
2022-11-06T02:20:13.130Z,5.60
2022-11-06T02:21:13.112Z,0.90
2022-11-06T02:22:13.095Z,3.60
2022-11-06T02:23:13.157Z,1.20
2022-11-06T02:24:13.100Z,0.60
2022-11-06T02:25:13.102Z,0.60
2022-11-06T02:26:13.090Z,0.50
2022-11-06T02:27:13.052Z,0.60
2022-11-06T02:28:13.401Z,0.50
2022-11-06T02:29:13.056Z,0.50
2022-11-06T02:30:13.033Z,0.50
2022-11-06T02:31:13.099Z,3.10
2022-11-06T02:32:13.052Z,1.20
2022-11-06T02:33:13.025Z,1.70
2022-11-06T02:34:14.077Z,3.90
2022-11-06T02:35:13.017Z,4.40
2022-11-06T02:36:12.988Z,1.80
2022-11-06T02:37:13.034Z,3.60
2022-11-06T02:38:13.199Z,3.40
2022-11-06T02:39:12.970Z,4.50
2022-11-06T02:40:12.974Z,3.30
2022-11-06T02:41:12.938Z,1.70
2022-11-06T02:42:13.029Z,3.70
2022-11-06T02:43:12.934Z,3.70
2022-11-06T02:44:12.908Z,1.60
2022-11-06T02:45:12.907Z,3.60
2022-11-06T02:46:12.894Z,3.70
2022-11-06T02:47:12.903Z,1.80
2022-11-06T02:48:13.238Z,1.50
2022-11-06T02:49:12.891Z,0.90
2022-11-06T02:50:12.872Z,0.70
2022-11-06T02:51:12.858Z,3.70
2022-11-06T02:52:12.876Z,1.80
2022-11-06T02:53:12.893Z,1.50
2022-11-06T02:54:12.832Z,3.40
2022-11-06T02:55:12.853Z,2.20
2022-11-06T02:56:12.812Z,2.00
2022-11-06T02:57:12.806Z,2.20
2022-11-06T02:58:13.090Z,2.00
2022-11-06T02:59:12.802Z,2.10
2022-11-06T03:00:12.786Z,3.80
2022-11-06T03:01:12.771Z,2.40
2022-11-06T03:02:12.916Z,1.60
2022-11-06T03:03:12.769Z,2.20
2022-11-06T03:04:12.760Z,1.10
2022-11-06T03:05:12.742Z,3.30
2022-11-06T03:06:12.732Z,2.40
2022-11-06T03:07:12.772Z,1.30
2022-11-06T03:08:12.953Z,1.40
2022-11-06T03:09:12.764Z,2.20
2022-11-06T03:10:12.702Z,1.60
2022-11-06T03:11:12.710Z,1.60
2022-11-06T03:12:12.828Z,3.00
2022-11-06T03:13:12.683Z,3.80
2022-11-06T03:14:12.659Z,1.50
2022-11-06T03:15:12.671Z,4.10
2022-11-06T03:16:12.672Z,1.70
2022-11-06T03:17:12.669Z,1.80
2022-11-06T03:18:12.928Z,3.10
2022-11-06T03:19:12.624Z,1.60
2022-11-06T03:20:12.625Z,3.70
2022-11-06T03:21:12.604Z,2.70
2022-11-06T03:22:12.627Z,5.00
2022-11-06T03:23:12.582Z,4.30
2022-11-06T03:24:12.582Z,3.20
2022-11-06T03:25:12.610Z,4.00
2022-11-06T03:26:12.575Z,0.90
2022-11-06T03:27:12.568Z,1.10
2022-11-06T03:28:12.921Z,3.20
2022-11-06T03:29:12.547Z,1.50
2022-11-06T03:30:16.332Z,2.50
2022-11-06T03:31:13.539Z,3.10
2022-11-06T03:32:12.519Z,4.70
2022-11-06T03:33:12.539Z,2.60
2022-11-06T03:34:12.513Z,3.70
2022-11-06T03:35:12.509Z,1.80
2022-11-06T03:36:12.478Z,2.90
2022-11-06T03:37:12.503Z,2.90
2022-11-06T03:38:12.813Z,2.20
2022-11-06T03:39:12.458Z,1.50
2022-11-06T03:40:12.451Z,0.80
2022-11-06T03:41:12.448Z,4.20
2022-11-06T03:42:12.467Z,2.10
2022-11-06T03:43:12.429Z,2.90
2022-11-06T03:44:12.423Z,2.00
2022-11-06T03:45:12.448Z,2.10
2022-11-06T03:46:12.395Z,0.90
2022-11-06T03:47:12.499Z,4.10
2022-11-06T03:48:12.709Z,4.60
2022-11-06T03:49:12.381Z,3.60
2022-11-06T03:50:12.390Z,4.50
2022-11-06T03:51:12.365Z,1.70
2022-11-06T03:52:12.393Z,1.50
2022-11-06T03:53:12.344Z,1.50
2022-11-06T03:54:12.356Z,1.50
2022-11-06T03:55:12.394Z,1.60
2022-11-06T03:56:12.310Z,0.60
2022-11-06T03:57:12.385Z,2.20
2022-11-06T03:58:12.580Z,1.90
2022-11-06T03:59:13.360Z,0.70
2022-11-06T04:00:12.282Z,1.60
2022-11-06T04:01:12.278Z,1.00
2022-11-06T04:02:12.456Z,1.00
2022-11-06T04:03:12.269Z,1.40
2022-11-06T04:04:12.247Z,1.70
2022-11-06T04:05:12.262Z,1.90
2022-11-06T04:06:12.230Z,1.50
2022-11-06T04:07:12.280Z,1.00
2022-11-06T04:08:12.554Z,3.40
2022-11-06T04:09:12.212Z,3.20
2022-11-06T04:10:12.209Z,2.60
2022-11-06T04:11:12.189Z,1.40
2022-11-06T04:12:12.217Z,4.70
2022-11-06T04:13:12.175Z,1.40
2022-11-06T04:14:12.208Z,2.90
2022-11-06T04:15:12.180Z,1.90
2022-11-06T04:16:12.157Z,2.20
2022-11-06T04:17:12.180Z,2.60
2022-11-06T04:18:12.402Z,2.60
2022-11-06T04:19:12.123Z,0.70
2022-11-06T04:20:12.114Z,3.50
2022-11-06T04:21:12.104Z,2.50
2022-11-06T04:22:12.121Z,2.90
2022-11-06T04:23:12.094Z,4.10
2022-11-06T04:24:12.081Z,0.70
2022-11-06T04:25:12.079Z,3.00
2022-11-06T04:26:12.062Z,3.30
2022-11-06T04:27:12.101Z,1.50
2022-11-06T04:28:12.428Z,1.50
2022-11-06T04:29:12.033Z,1.50
2022-11-06T04:30:12.027Z,2.60
2022-11-06T04:31:12.051Z,1.60
2022-11-06T04:32:12.004Z,2.20
2022-11-06T04:33:12.017Z,3.60
2022-11-06T04:34:11.994Z,1.90
2022-11-06T04:35:11.978Z,2.10
2022-11-06T04:36:12.029Z,0.70
2022-11-06T04:37:11.967Z,2.50
2022-11-06T04:38:12.290Z,3.30
2022-11-06T04:39:11.961Z,1.90
2022-11-06T04:40:11.938Z,1.20
2022-11-06T04:41:12.024Z,2.00
2022-11-06T04:42:11.923Z,2.50
2022-11-06T04:43:11.986Z,1.60
2022-11-06T04:44:11.908Z,2.10
2022-11-06T04:45:11.902Z,1.70
2022-11-06T04:46:11.927Z,2.30
2022-11-06T04:47:11.883Z,3.50
2022-11-06T04:48:12.311Z,3.60
2022-11-06T04:49:11.865Z,2.50
2022-11-06T04:50:11.870Z,1.10
2022-11-06T04:51:11.849Z,2.40
2022-11-06T04:52:11.880Z,1.90
2022-11-06T04:53:11.833Z,2.10
2022-11-06T04:54:11.826Z,1.80
2022-11-06T04:55:11.834Z,1.60
2022-11-06T04:56:11.798Z,1.70
2022-11-06T04:57:11.826Z,2.20
2022-11-06T04:58:12.071Z,0.50
2022-11-06T04:59:12.790Z,2.10
2022-11-06T05:00:11.787Z,2.80
2022-11-06T05:01:11.812Z,0.40
2022-11-06T05:02:11.840Z,4.20
2022-11-06T05:03:11.759Z,2.90
2022-11-06T05:04:11.760Z,1.60
2022-11-06T05:05:11.748Z,3.60
2022-11-06T05:06:11.727Z,1.10
2022-11-06T05:07:11.741Z,0.60
2022-11-06T05:08:12.149Z,2.50
2022-11-06T05:09:11.702Z,2.50
2022-11-06T05:10:11.712Z,2.90
2022-11-06T05:11:11.701Z,1.40
2022-11-06T05:12:11.712Z,1.50
2022-11-06T05:13:11.665Z,3.40
2022-11-06T05:14:11.654Z,1.30
2022-11-06T05:15:11.651Z,1.00
2022-11-06T05:16:11.654Z,2.70
2022-11-06T05:17:11.755Z,1.00
2022-11-06T05:18:12.099Z,0.70
2022-11-06T05:19:11.615Z,2.10
2022-11-06T05:20:11.602Z,3.20
2022-11-06T05:21:11.616Z,1.70
2022-11-06T05:22:11.838Z,1.30
2022-11-06T05:23:11.596Z,0.50
2022-11-06T05:24:11.575Z,2.00
2022-11-06T05:25:11.587Z,0.80
2022-11-06T05:26:11.557Z,1.90
2022-11-06T05:27:11.584Z,1.10
2022-11-06T05:28:11.908Z,0.80
2022-11-06T05:29:11.547Z,0.80
2022-11-06T05:30:11.519Z,1.80
2022-11-06T05:31:11.516Z,1.30
2022-11-06T05:32:11.536Z,2.80
2022-11-06T05:33:11.523Z,1.70
2022-11-06T05:34:11.536Z,2.10
2022-11-06T05:35:11.482Z,2.00
2022-11-06T05:36:11.464Z,1.30
2022-11-06T05:37:11.507Z,1.60
2022-11-06T05:38:11.862Z,1.20
2022-11-06T05:39:11.446Z,0.80
2022-11-06T05:40:11.451Z,0.80
2022-11-06T05:41:11.440Z,1.70
2022-11-06T05:42:11.464Z,0.90
2022-11-06T05:43:11.404Z,2.50
2022-11-06T05:44:11.427Z,1.10
2022-11-06T05:45:11.386Z,2.70
2022-11-06T05:46:29.749Z,2.40
2022-11-06T05:47:13.400Z,2.00
2022-11-06T05:48:11.715Z,1.70
2022-11-06T05:49:11.360Z,1.40
2022-11-06T05:50:11.350Z,1.00
2022-11-06T05:51:11.359Z,1.40
2022-11-06T05:52:11.364Z,1.50
2022-11-06T05:53:11.328Z,1.90
2022-11-06T05:54:11.312Z,1.90
2022-11-06T05:55:14.658Z,1.10
2022-11-06T05:56:12.300Z,1.70
2022-11-06T05:57:11.321Z,2.30
2022-11-06T05:58:11.555Z,2.80
2022-11-06T05:59:11.276Z,2.10
2022-11-06T06:00:11.276Z,1.80
2022-11-06T06:01:11.270Z,1.10
2022-11-06T06:02:11.372Z,1.80
2022-11-06T06:03:11.303Z,1.90
2022-11-06T06:04:12.227Z,1.60
2022-11-06T06:05:11.222Z,3.10
2022-11-06T06:06:11.216Z,2.00
2022-11-06T06:07:11.241Z,1.30
2022-11-06T06:08:11.506Z,0.50
2022-11-06T06:09:11.192Z,2.00
2022-11-06T06:10:11.184Z,1.80
2022-11-06T06:11:11.176Z,2.30
2022-11-06T06:12:11.163Z,1.40
2022-11-06T06:13:11.324Z,1.90
2022-11-06T06:14:11.167Z,2.10
2022-11-06T06:15:11.136Z,1.80
2022-11-06T06:16:11.153Z,2.50
2022-11-06T06:17:11.118Z,2.10
2022-11-06T06:18:11.650Z,2.50
2022-11-06T06:19:11.103Z,1.70
2022-11-06T06:20:11.098Z,2.60
2022-11-06T06:21:11.103Z,1.90
2022-11-06T06:22:11.090Z,2.50
2022-11-06T06:23:11.112Z,2.40
2022-11-06T06:24:11.116Z,2.00
2022-11-06T06:25:21.350Z,2.10
2022-11-06T06:26:13.040Z,2.60
2022-11-06T06:27:11.031Z,2.00
2022-11-06T06:28:11.340Z,2.10
2022-11-06T06:29:11.004Z,3.40
2022-11-06T06:30:12.005Z,1.70
2022-11-06T06:31:10.997Z,2.50
2022-11-06T06:32:10.999Z,2.20
2022-11-06T06:33:11.004Z,3.80
2022-11-06T06:34:10.981Z,4.60
2022-11-06T06:35:10.973Z,4.40
2022-11-06T06:36:10.957Z,3.90
2022-11-06T06:37:10.949Z,3.00
2022-11-06T06:38:11.378Z,3.00
2022-11-06T06:39:10.935Z,2.00
2022-11-06T06:40:10.925Z,3.50
2022-11-06T06:41:10.917Z,3.80
2022-11-06T06:42:10.902Z,3.40
2022-11-06T06:43:10.928Z,3.20
2022-11-06T06:44:10.895Z,1.50
2022-11-06T06:45:10.882Z,3.30
2022-11-06T06:46:10.875Z,2.70
2022-11-06T06:47:10.865Z,3.60
2022-11-06T06:48:11.324Z,4.40
2022-11-06T06:49:10.855Z,4.20
2022-11-06T06:50:10.835Z,3.20
2022-11-06T06:51:10.838Z,2.70
2022-11-06T06:52:10.828Z,2.40
2022-11-06T06:53:10.847Z,3.30
2022-11-06T06:54:10.830Z,3.00
2022-11-06T06:55:10.801Z,2.20
2022-11-06T06:56:10.801Z,1.10
2022-11-06T06:57:10.777Z,3.40
2022-11-06T06:58:16.568Z,1.50
2022-11-06T06:59:12.772Z,1.80
2022-11-06T07:00:10.760Z,2.30
2022-11-06T07:01:10.840Z,1.00
2022-11-06T07:02:10.811Z,1.70
2022-11-06T07:03:10.761Z,2.30
2022-11-06T07:04:10.720Z,0.90
2022-11-06T07:05:10.720Z,2.50
2022-11-06T07:06:10.726Z,1.20
2022-11-06T07:07:10.695Z,2.60
2022-11-06T07:08:11.057Z,0.70
2022-11-06T07:09:10.688Z,1.20
2022-11-06T07:10:10.684Z,1.70
2022-11-06T07:11:10.671Z,1.70
2022-11-06T07:12:10.662Z,1.70
2022-11-06T07:13:10.973Z,1.50
2022-11-06T07:14:10.641Z,0.70
2022-11-06T07:15:10.642Z,2.30
2022-11-06T07:16:10.618Z,0.80
2022-11-06T07:17:10.633Z,1.20
2022-11-06T07:18:10.903Z,1.50
2022-11-06T07:19:10.618Z,2.00
2022-11-06T07:20:10.600Z,2.30
2022-11-06T07:21:10.587Z,1.90
2022-11-06T07:22:10.581Z,1.90
2022-11-06T07:23:10.594Z,1.70
2022-11-06T07:24:10.562Z,1.10
2022-11-06T07:25:10.561Z,1.40
2022-11-06T07:26:10.544Z,1.00
2022-11-06T07:27:10.537Z,1.70
2022-11-06T07:28:10.572Z,0.80
2022-11-06T07:29:10.596Z,0.60
2022-11-06T07:30:10.512Z,1.40
2022-11-06T07:31:10.504Z,2.30
2022-11-06T07:32:10.498Z,1.30
2022-11-06T07:33:10.511Z,2.20
2022-11-06T07:34:10.483Z,1.30
2022-11-06T07:35:10.470Z,1.80
2022-11-06T07:36:10.465Z,1.90
2022-11-06T07:37:10.449Z,1.50
2022-11-06T07:38:10.697Z,1.10
2022-11-06T07:39:10.432Z,2.20
2022-11-06T07:40:10.432Z,2.10
2022-11-06T07:41:10.424Z,0.80
2022-11-06T07:42:10.403Z,0.90
2022-11-06T07:43:10.430Z,1.70
2022-11-06T07:44:42.922Z,1.30
2022-11-06T07:45:10.375Z,2.00
2022-11-06T07:46:10.418Z,2.20
2022-11-06T07:47:10.362Z,1.80
2022-11-06T07:48:10.394Z,1.50
2022-11-06T07:49:10.353Z,1.70
2022-11-06T07:50:10.341Z,1.50
2022-11-06T07:51:10.334Z,1.60
2022-11-06T07:52:10.327Z,1.50
2022-11-06T07:53:10.511Z,1.60
2022-11-06T07:54:10.308Z,2.00
2022-11-06T07:55:10.301Z,1.80
2022-11-06T07:56:10.322Z,2.20
2022-11-06T07:57:10.289Z,1.90
2022-11-06T07:58:10.393Z,1.80
2022-11-06T07:59:10.260Z,1.60
2022-11-06T08:00:10.261Z,2.30
2022-11-06T08:01:12.963Z,1.70
2022-11-06T08:02:12.408Z,1.90
2022-11-06T08:03:10.241Z,2.30
2022-11-06T08:04:10.247Z,1.90
2022-11-06T08:05:10.226Z,2.40
2022-11-06T08:06:10.210Z,1.80
2022-11-06T08:07:10.206Z,1.90
2022-11-06T08:08:10.318Z,1.90
2022-11-06T08:09:10.206Z,1.70
2022-11-06T08:10:10.168Z,1.90
2022-11-06T08:11:10.165Z,2.00
2022-11-06T08:12:10.158Z,1.90
2022-11-06T08:13:10.152Z,1.70
2022-11-06T08:14:10.157Z,1.70
2022-11-06T08:15:11.130Z,1.40
2022-11-06T08:16:10.123Z,1.40
2022-11-06T08:17:10.116Z,1.70
2022-11-06T08:18:11.499Z,1.40
2022-11-06T08:19:10.131Z,1.90
2022-11-06T08:20:10.089Z,1.60
2022-11-06T08:21:10.084Z,1.60
2022-11-06T08:22:10.066Z,1.50
2022-11-06T08:23:10.068Z,1.70
2022-11-06T08:24:10.089Z,2.10
2022-11-06T08:25:10.052Z,1.90
2022-11-06T08:26:10.044Z,2.20
2022-11-06T08:27:10.104Z,1.60
2022-11-06T08:28:10.179Z,1.80
2022-11-06T08:29:10.052Z,1.70
2022-11-06T08:30:10.007Z,1.60
2022-11-06T08:31:10.010Z,1.90
2022-11-06T08:32:10.003Z,2.00
2022-11-06T08:33:09.993Z,1.70
2022-11-06T08:34:10.027Z,1.60
2022-11-06T08:35:09.969Z,2.00
2022-11-06T08:36:09.981Z,2.00
2022-11-06T08:37:09.959Z,2.10
2022-11-06T08:38:09.948Z,1.50
2022-11-06T08:39:09.968Z,2.20
2022-11-06T08:40:09.930Z,1.70
2022-11-06T08:41:09.918Z,1.90
2022-11-06T08:42:09.927Z,1.70
2022-11-06T08:43:09.912Z,2.00
2022-11-06T08:44:09.928Z,1.50
2022-11-06T08:45:09.889Z,2.30
2022-11-06T08:46:09.954Z,1.80
2022-11-06T08:47:09.875Z,2.10
2022-11-06T08:48:09.873Z,1.80
2022-11-06T08:49:09.899Z,2.20
2022-11-06T08:50:09.855Z,1.50
2022-11-06T08:51:09.843Z,1.50
2022-11-06T08:52:09.838Z,1.60
2022-11-06T08:53:09.842Z,1.70
2022-11-06T08:54:09.877Z,1.90
2022-11-06T08:55:09.811Z,1.70
2022-11-06T08:56:09.804Z,1.70
2022-11-06T08:57:09.796Z,1.70
2022-11-06T08:58:09.805Z,1.80
2022-11-06T08:59:09.815Z,2.00
2022-11-06T09:00:09.769Z,2.30
2022-11-06T09:01:09.840Z,2.40
2022-11-06T09:02:09.862Z,2.00
2022-11-06T09:03:09.747Z,2.00
2022-11-06T09:04:09.774Z,1.70
2022-11-06T09:05:09.730Z,2.00
2022-11-06T09:06:09.720Z,1.90
2022-11-06T09:07:09.713Z,1.80
2022-11-06T09:08:09.711Z,1.60
2022-11-06T09:09:09.735Z,1.80
2022-11-06T09:10:09.692Z,1.90
2022-11-06T09:11:09.681Z,1.80
2022-11-06T09:12:09.687Z,1.90
2022-11-06T09:13:09.677Z,2.20
2022-11-06T09:14:09.656Z,2.30
2022-11-06T09:15:09.680Z,2.20
2022-11-06T09:16:15.343Z,2.10
2022-11-06T09:17:11.635Z,2.20
2022-11-06T09:18:09.623Z,1.80
2022-11-06T09:19:09.628Z,2.00
2022-11-06T09:20:09.642Z,1.70
2022-11-06T09:21:09.609Z,1.40
2022-11-06T09:22:09.594Z,1.70
2022-11-06T09:23:09.588Z,1.80
2022-11-06T09:24:09.572Z,1.90
2022-11-06T09:25:09.601Z,2.00
2022-11-06T09:26:09.567Z,2.10
2022-11-06T09:27:09.546Z,2.00
2022-11-06T09:28:10.552Z,2.00
2022-11-06T09:29:09.549Z,1.80
2022-11-06T09:30:09.574Z,1.90
2022-11-06T09:31:09.528Z,1.80
2022-11-06T09:32:09.520Z,1.80
2022-11-06T09:33:13.557Z,1.80
2022-11-06T09:34:10.497Z,2.00
2022-11-06T09:35:09.540Z,1.60
2022-11-06T09:36:09.492Z,2.00
2022-11-06T09:37:09.483Z,2.30
2022-11-06T09:38:09.471Z,2.00
2022-11-06T09:39:09.458Z,1.70
2022-11-06T09:40:09.451Z,1.80
2022-11-06T09:41:09.475Z,1.70
2022-11-06T09:42:09.438Z,1.80
2022-11-06T09:43:09.431Z,2.00
2022-11-06T09:44:09.420Z,2.20
2022-11-06T09:45:09.415Z,1.50
2022-11-06T09:46:09.437Z,1.80
2022-11-06T09:47:09.390Z,1.90
2022-11-06T09:48:09.383Z,1.80
2022-11-06T09:49:09.389Z,1.80
2022-11-06T09:50:09.379Z,1.90
2022-11-06T09:51:09.397Z,2.10
2022-11-06T09:52:09.364Z,2.00
2022-11-06T09:53:09.347Z,1.40
2022-11-06T09:54:09.359Z,2.00
2022-11-06T09:55:09.337Z,1.60
2022-11-06T09:56:09.347Z,1.90
2022-11-06T09:57:10.326Z,1.50
2022-11-06T09:58:09.310Z,1.60
2022-11-06T09:59:09.311Z,1.80
2022-11-06T10:00:09.294Z,2.00
2022-11-06T10:01:09.381Z,1.90
2022-11-06T10:02:09.404Z,1.40
2022-11-06T10:03:09.265Z,1.80
2022-11-06T10:04:09.263Z,1.60
2022-11-06T10:05:09.256Z,1.60
2022-11-06T10:06:09.299Z,2.10
2022-11-06T10:07:09.250Z,1.60
2022-11-06T10:08:09.228Z,1.70
2022-11-06T10:09:09.230Z,1.90
2022-11-06T10:10:09.219Z,1.60
2022-11-06T10:11:09.239Z,2.00
2022-11-06T10:12:09.203Z,1.70
2022-11-06T10:13:10.754Z,1.70
2022-11-06T10:14:09.178Z,1.40
2022-11-06T10:15:09.176Z,1.30
2022-11-06T10:16:09.211Z,1.70
2022-11-06T10:17:10.159Z,1.40
2022-11-06T10:18:09.158Z,1.30
2022-11-06T10:19:09.147Z,1.40
2022-11-06T10:20:09.133Z,1.70
2022-11-06T10:21:09.156Z,1.30
2022-11-06T10:22:09.111Z,1.50
2022-11-06T10:23:10.110Z,1.30
2022-11-06T10:24:09.102Z,0.90
2022-11-06T10:25:09.101Z,1.30
2022-11-06T10:26:09.125Z,1.20
2022-11-06T10:27:09.086Z,1.10
2022-11-06T10:28:09.072Z,1.50
2022-11-06T10:29:09.073Z,1.10
2022-11-06T10:30:09.060Z,1.10
2022-11-06T10:31:09.084Z,1.60
2022-11-06T10:32:09.052Z,1.20
2022-11-06T10:33:09.037Z,1.10
2022-11-06T10:34:09.063Z,1.10
2022-11-06T10:35:09.025Z,1.20
2022-11-06T10:36:09.158Z,1.50
2022-11-06T10:37:09.011Z,1.20
2022-11-06T10:38:08.996Z,0.90
2022-11-06T10:39:08.989Z,1.30
2022-11-06T10:40:08.978Z,1.20
2022-11-06T10:41:08.976Z,1.30
2022-11-06T10:42:08.994Z,1.20
2022-11-06T10:43:08.954Z,1.20
2022-11-06T10:44:08.952Z,1.40
2022-11-06T10:45:08.956Z,1.10
2022-11-06T10:46:08.960Z,1.10
2022-11-06T10:47:08.925Z,1.10
2022-11-06T10:48:08.918Z,1.20
2022-11-06T10:49:08.910Z,1.40
2022-11-06T10:50:08.903Z,1.00
2022-11-06T10:51:08.921Z,1.40
2022-11-06T10:52:08.882Z,1.00
2022-11-06T10:53:08.880Z,1.60
2022-11-06T10:54:08.868Z,1.00
2022-11-06T10:55:09.913Z,1.30
2022-11-06T10:56:11.134Z,1.20
2022-11-06T10:57:09.846Z,1.30
2022-11-06T10:58:08.845Z,1.50
2022-11-06T10:59:08.836Z,1.20
2022-11-06T11:00:08.826Z,1.30
2022-11-06T11:01:08.888Z,1.20
2022-11-06T11:02:08.924Z,1.30
2022-11-06T11:03:08.797Z,1.40
2022-11-06T11:04:08.792Z,1.20
2022-11-06T11:05:08.826Z,1.30
2022-11-06T11:06:08.776Z,1.40
2022-11-06T11:07:08.798Z,1.10
2022-11-06T11:08:08.762Z,1.60
2022-11-06T11:09:08.750Z,1.30
2022-11-06T11:10:08.771Z,1.40
2022-11-06T11:11:08.742Z,1.30
2022-11-06T11:12:08.759Z,1.60
2022-11-06T11:13:09.155Z,1.40
2022-11-06T11:14:09.707Z,1.10
2022-11-06T11:15:08.703Z,1.40
2022-11-06T11:16:08.701Z,1.50
2022-11-06T11:17:08.713Z,1.20
2022-11-06T11:18:08.682Z,1.40
2022-11-06T11:19:08.698Z,1.30
2022-11-06T11:20:08.672Z,1.20
2022-11-06T11:21:08.661Z,1.30
2022-11-06T11:22:08.684Z,1.50
2022-11-06T11:23:08.747Z,2.40
2022-11-06T11:24:08.630Z,1.50
2022-11-06T11:25:08.624Z,1.60
2022-11-06T11:26:08.609Z,1.40
2022-11-06T11:27:08.752Z,1.30
2022-11-06T11:28:08.596Z,1.20
2022-11-06T11:29:08.593Z,1.20
2022-11-06T11:30:08.584Z,1.30
2022-11-06T11:31:08.588Z,1.20
2022-11-06T11:32:08.604Z,1.20
2022-11-06T11:33:08.559Z,1.20
2022-11-06T11:34:08.556Z,1.40
2022-11-06T11:35:08.542Z,2.00
2022-11-06T11:36:08.539Z,1.40
2022-11-06T11:37:08.555Z,1.20
2022-11-06T11:38:08.517Z,1.70
2022-11-06T11:39:08.518Z,1.40
2022-11-06T11:40:13.266Z,1.70
2022-11-06T11:41:10.493Z,1.30
2022-11-06T11:42:08.514Z,1.40
2022-11-06T11:43:08.487Z,1.30
2022-11-06T11:44:08.477Z,1.40
2022-11-06T11:45:08.460Z,1.60
2022-11-06T11:46:08.467Z,1.50
2022-11-06T11:47:09.314Z,1.40
2022-11-06T11:48:09.442Z,1.20
2022-11-06T11:49:08.439Z,1.30
2022-11-06T11:50:08.426Z,1.20
2022-11-06T11:51:08.419Z,1.20
2022-11-06T11:52:08.426Z,1.30
2022-11-06T11:53:10.568Z,1.30
2022-11-06T11:54:09.396Z,1.20
2022-11-06T11:55:08.392Z,1.30
2022-11-06T11:56:08.386Z,1.40
2022-11-06T11:57:09.376Z,1.10
2022-11-06T11:58:08.401Z,1.30
2022-11-06T11:59:08.418Z,1.30
2022-11-06T12:00:08.349Z,1.00
2022-11-06T12:01:08.343Z,1.20
2022-11-06T12:02:08.554Z,1.30
2022-11-06T12:03:08.427Z,1.50
2022-11-06T12:04:08.318Z,1.20
2022-11-06T12:05:09.308Z,1.20
2022-11-06T12:06:08.319Z,1.10
2022-11-06T12:07:08.320Z,1.00
2022-11-06T12:08:08.286Z,1.00
2022-11-06T12:09:08.278Z,1.30
2022-11-06T12:10:08.265Z,1.20
2022-11-06T12:11:08.270Z,1.10
2022-11-06T12:12:08.290Z,1.00
2022-11-06T12:13:08.248Z,1.10
2022-11-06T12:14:08.241Z,1.30
2022-11-06T12:15:08.230Z,1.00
2022-11-06T12:16:08.225Z,1.10
2022-11-06T12:17:08.246Z,1.10
2022-11-06T12:18:08.209Z,1.40
2022-11-06T12:19:08.203Z,1.20
2022-11-06T12:20:08.189Z,1.20
2022-11-06T12:21:08.190Z,1.30
2022-11-06T12:22:08.203Z,1.10
2022-11-06T12:23:08.168Z,1.30
2022-11-06T12:24:08.161Z,1.20
2022-11-06T12:25:08.173Z,1.20
2022-11-06T12:26:08.146Z,1.00
2022-11-06T12:27:08.170Z,1.10
2022-11-06T12:28:08.123Z,1.10
2022-11-06T12:29:08.122Z,1.20
2022-11-06T12:30:08.109Z,1.00
2022-11-06T12:31:08.103Z,1.30
2022-11-06T12:32:08.092Z,1.30
2022-11-06T12:33:08.119Z,1.30
2022-11-06T12:34:11.980Z,1.40
2022-11-06T12:35:09.072Z,1.00
2022-11-06T12:36:08.078Z,1.50
2022-11-06T12:37:08.049Z,1.10
2022-11-06T12:38:08.088Z,1.50
2022-11-06T12:39:08.042Z,0.90
2022-11-06T12:40:08.035Z,1.20
2022-11-06T12:41:08.025Z,1.10
2022-11-06T12:42:08.018Z,1.30
2022-11-06T12:43:08.105Z,1.40
2022-11-06T12:44:07.988Z,1.60
2022-11-06T12:45:08.994Z,1.10
2022-11-06T12:46:07.999Z,1.20
2022-11-06T12:47:07.975Z,1.10
2022-11-06T12:48:07.994Z,1.20
2022-11-06T12:49:07.953Z,1.20
2022-11-06T12:50:07.956Z,1.00
2022-11-06T12:51:07.945Z,1.30
2022-11-06T12:52:07.932Z,1.50
2022-11-06T12:53:07.991Z,1.30
2022-11-06T12:54:07.931Z,0.80
2022-11-06T12:55:07.916Z,2.20
2022-11-06T12:56:07.899Z,1.10
2022-11-06T12:57:07.898Z,1.20
2022-11-06T12:58:07.919Z,1.30
2022-11-06T12:59:07.879Z,1.20
2022-11-06T13:00:07.875Z,1.30
2022-11-06T13:01:07.912Z,0.80
2022-11-06T13:02:07.985Z,1.20
2022-11-06T13:03:07.881Z,1.00
2022-11-06T13:04:07.848Z,1.00
2022-11-06T13:05:07.836Z,1.00
2022-11-06T13:06:12.951Z,0.90
2022-11-06T13:07:09.813Z,1.20
2022-11-06T13:08:07.841Z,1.10
2022-11-06T13:09:07.810Z,1.30
2022-11-06T13:10:07.797Z,1.10
2022-11-06T13:11:07.798Z,1.30
2022-11-06T13:12:07.782Z,1.10
2022-11-06T13:13:12.714Z,1.40
2022-11-06T13:14:09.761Z,1.20
2022-11-06T13:15:07.820Z,1.40
2022-11-06T13:16:07.747Z,0.80
2022-11-06T13:17:07.724Z,1.10
2022-11-06T13:18:08.769Z,1.10